CYPA

Prince Albert Glass Field Airport

Prince Albert, Saskatchewan, Canada
METAR CYPA 221800Z 28018G29KT 15SM BKN038 09/02 A2984 RMK SC6 SLP120
Observed Flight Rules
Apr-22 @ 18:00 UTC (11 minutes ago) Visual Flight Rules
Wind Visibility Clouds
280° at 18 knots
 Gusting to 29 knots
15 miles
  • Broken at 3,800' AGL
Temperatures Readings
Current 9°C / 48°F
Dewpoint 2°C / 36°F
Humidity 62%
Altimeter 29.84" Hg
Pressure 1012 hPa
Elevation 428
METAR CYPA 221800Z 28018G29KT 15SM BKN038 09/02 A2984 RMK SC6 SLP120
Observed Flight Rules
Apr-22 @ 18:00 UTC
(11 minutes ago)
VFR
Wind Visibility
280° at 18 knots
 Gusting to 29 knots
15 miles
Clouds
  • Broken at 3,800' AGL
Temperature Dewpoint
9°C / 48°F 2°C / 36°F
Humidity Altimeter Pressure
62% 29.84" Hg 1012 hPa